KGUS/GUS METAR and TAF weather

Enter ICAO airport designator
Station Type Date Time Source
KGUS METAR 2022/11/30 09:55 UTC NOAA

KGUS 300955Z AUTO 30021G30KT 10SM OVC012 M01/M04 A2978 RMK AO2 PK WND 30030/50 SLP092 T10091039 $


Station Type Date Time Source
KGUS Decoded METAR 2022/11/30 09:55 UTC NOAA

Grissom Air Force Base / Peru, IN, United States (KGUS) 40-39N 086-09W
Nov 30, 2022 - 04:55 AM EST / 2022.11.30 0955 UTC
Wind: from the WNW (300 degrees) at 24 MPH (21 KT) gusting to 35 MPH (30 KT):0
Visibility: 10 mile(s):0
Sky conditions: overcast
Temperature: 30.4 F (-0.9 C)
Windchill: 17 F (-8 C):1
Dew Point: 25.0 F (-3.9 C)
Relative Humidity: 80%
Pressure (altimeter): 29.78 in. Hg (1008 hPa)
ob: KGUS 300955Z AUTO 30021G30KT 10SM OVC012 M01/M04 A2978 RMK AO2 PK WND 30030/50 SLP092 T10091039
cycle: 10

Station Type Date Time Source
KGUS TAF 2022/11/30 00:42 UTC NOAA

TAF TAF
AMD KGUS 300032Z 3000/0103 17015G25KT 9999 SCT065 SCT100 BKN250 510005 QNH2955INS
TEMPO 3000/3004 17020G35KT 9000 -SHRA BKN015 BKN030 BKN090
BECMG 3003/3004 18020G35KT 9000 -SHRA OVC015 610909 520005 QNH2945INS
TEMPO 3004/3006 19025G40KT 4800 -TSRA BKN015CB BKN100
BECMG 3005/3006 27025G35KT 8000 -RA BKN010 OVC020 620208 520005 QNH2950INS
BECMG 3012/3013 28025G35KT 9999 NSW SCT014 OVC020 620208 510005 QNH2971INS
BECMG 3015/3016 28025G35KT 9999 FEW022 FEW085 SCT120 520005 QNH2987INS TX14/3000Z TNM01/3012Z LAST NO
AMDS AFT 3004 NEXT 3013

Example: see airport list